Time;durP1;ratioP1;P1;durP2;ratioP2;P2;SDS_P1;SDS_P2;PMS_P1;PMS_P2;Temp;Humidity;BMP_temperature;BMP_pressure;BME280_temperature;BME280_humidity;BME280_pressure;Samples;Min_cycle;Max_cycle;Signal;HPM_P1;HPM_P2
2022/04/26 03:36:54;;;;;;;;;;;9.40;99.40;;;;;;5043364;28;20439;-65
2022/04/26 03:39:19;;;;;;;;;;;9.50;99.30;;;;;;5033534;28;19940;-63
2022/04/26 03:41:45;;;;;;;;;;;9.40;99.80;;;;;;5032784;28;19928;-64
2022/04/26 03:44:10;;;;;;;;;;;9.50;99.70;;;;;;5044589;28;20002;-64
2022/04/26 03:46:36;;;;;;;;;;;9.40;99.90;;;;;;5033080;28;20409;-64
2022/04/26 03:49:01;;;;;;;;;;;9.40;99.80;;;;;;5043129;28;20476;-64
2022/04/26 03:51:28;;;;;;;;;;;9.30;99.90;;;;;;5030528;28;21588;-65
2022/04/26 03:53:54;;;;;;;;;;;9.30;99.90;;;;;;5032622;28;20016;-64
2022/04/26 03:56:20;;;;;;;;;;;9.30;99.90;;;;;;5029783;28;19933;-64
2022/04/26 03:58:45;;;;;;;;;;;9.30;99.90;;;;;;5042923;28;20019;-64
2022/04/26 04:01:10;;;;;;;;;;;9.20;99.90;;;;;;5041928;28;19913;-64
2022/04/26 04:03:37;;;;;;;;;;;9.20;99.90;;;;;;5030824;28;20309;-64
2022/04/26 04:06:02;;;;;;;;;;;9.20;99.90;;;;;;5027153;28;20429;-63
2022/04/26 04:08:27;;;;;;;;;;;9.20;99.90;;;;;;5026067;28;19927;-63
2022/04/26 04:10:53;;;;;;;;;;;9.20;99.90;;;;;;5028417;28;20658;-64
2022/04/26 04:13:18;;;;;;;;;;;9.20;99.90;;;;;;5029869;28;19909;-63
2022/04/26 04:15:46;;;;;;;;;;;9.20;99.90;;;;;;5029424;28;19921;-63
2022/04/26 04:20:56;;;;;;;;;;;9.20;99.90;;;;;;5026995;28;19952;-62
2022/04/26 04:23:22;;;;;;;;;;;9.10;99.90;;;;;;5026727;28;19964;-64
2022/04/26 04:25:48;;;;;;;;;;;9.10;99.90;;;;;;5027855;28;19913;-63
2022/04/26 04:28:15;;;;;;;;;;;9.20;99.90;;;;;;5038833;28;19924;-64
2022/04/26 04:30:41;;;;;;;;;;;9.10;99.90;;;;;;5029353;28;19917;-64
2022/04/26 04:33:06;;;;;;;;;;;9.10;99.90;;;;;;5025947;28;19913;-64
2022/04/26 04:35:32;;;;;;;;;;;9.10;99.90;;;;;;5025724;28;20432;-64
2022/04/26 04:37:57;;;;;;;;;;;9.10;99.90;;;;;;5027387;28;19921;-66
2022/04/26 04:40:23;;;;;;;;;;;9.20;99.90;;;;;;5036601;28;19909;-64
2022/04/26 04:42:48;;;;;;;;;;;9.20;99.90;;;;;;5028980;28;19913;-65
2022/04/26 04:45:14;;;;;;;;;;;9.20;99.90;;;;;;5032460;28;19921;-65
2022/04/26 04:47:39;;;;;;;;;;;9.20;99.90;;;;;;5032076;28;20433;-64
2022/04/26 04:50:05;;;;;;;;;;;9.20;99.90;;;;;;5042998;28;19918;-65
2022/04/26 04:52:31;;;;;;;;;;;9.20;99.90;;;;;;5040138;28;19944;-64
2022/04/26 04:54:56;;;;;;;;;;;9.20;99.90;;;;;;5040583;28;19913;-64
2022/04/26 04:57:22;;;;;;;;;;;9.20;99.90;;;;;;5033814;28;20021;-62
2022/04/26 04:59:48;;;;;;;;;;;9.20;99.90;;;;;;5029091;28;19948;-63
2022/04/26 05:02:13;;;;;;;;;;;9.30;99.90;;;;;;5029679;28;19910;-63
2022/04/26 05:04:42;;;;;;;;;;;9.30;99.90;;;;;;5035237;28;19917;-64
2022/04/26 05:07:08;;;;;;;;;;;9.30;99.90;;;;;;5032947;28;20015;-64
2022/04/26 05:09:33;;;;;;;;;;;9.20;99.90;;;;;;5032262;28;20449;-64
2022/04/26 05:11:59;;;;;;;;;;;9.20;99.90;;;;;;5033658;28;19913;-63
2022/04/26 05:14:24;;;;;;;;;;;9.10;99.90;;;;;;5041717;28;19917;-63
2022/04/26 05:16:50;;;;;;;;;;;9.20;99.90;;;;;;5030228;28;20328;-64
2022/04/26 05:19:16;;;;;;;;;;;9.20;99.90;;;;;;5032171;28;19961;-62
2022/04/26 05:21:42;;;;;;;;;;;9.30;99.90;;;;;;5029688;28;19913;-64
2022/04/26 05:26:51;;;;;;;;;;;9.30;99.90;;;;;;5028077;28;20014;-65
2022/04/26 05:29:17;;;;;;;;;;;9.30;99.90;;;;;;5028891;28;20390;-62
2022/04/26 05:31:42;;;;;;;;;;;9.40;99.90;;;;;;5030248;28;19916;-64
2022/04/26 05:34:08;;;;;;;;;;;9.40;99.90;;;;;;5030688;28;19920;-63
2022/04/26 05:36:33;;;;;;;;;;;9.40;99.90;;;;;;5027837;28;19951;-64
2022/04/26 05:39:00;;;;;;;;;;;9.40;99.90;;;;;;5040228;28;19919;-63
2022/04/26 05:41:25;;;;;;;;;;;9.40;99.90;;;;;;5043981;28;19909;-62
2022/04/26 05:43:51;;;;;;;;;;;9.40;99.90;;;;;;5030085;28;19921;-63
2022/04/26 05:46:16;;;;;;;;;;;9.40;99.90;;;;;;5031632;28;19924;-62
2022/04/26 05:48:42;;;;;;;;;;;9.40;99.90;;;;;;5032128;28;20016;-62
2022/04/26 05:51:07;;;;;;;;;;;9.40;99.90;;;;;;5031296;28;19913;-64
2022/04/26 05:53:35;;;;;;;;;;;9.40;99.90;;;;;;5033694;28;19920;-63
2022/04/26 05:56:00;;;;;;;;;;;9.40;99.90;;;;;;5044002;28;19910;-62
2022/04/26 05:58:26;;;;;;;;;;;9.40;99.90;;;;;;5040057;28;19935;-62
2022/04/26 06:00:51;;;;;;;;;;;9.50;99.90;;;;;;5038367;28;19909;-62
2022/04/26 06:03:17;;;;;;;;;;;9.50;99.90;;;;;;5032709;28;19914;-61
2022/04/26 06:05:42;;;;;;;;;;;9.60;99.90;;;;;;5032811;28;19909;-64
2022/04/26 06:08:09;;;;;;;;;;;9.60;99.90;;;;;;5023705;28;19921;-64
2022/04/26 06:10:37;;;;;;;;;;;9.60;99.90;;;;;;5037154;28;19916;-64
2022/04/26 06:13:02;;;;;;;;;;;9.60;99.90;;;;;;5031014;28;19917;-62
2022/04/26 06:15:28;;;;;;;;;;;9.60;99.90;;;;;;5028215;28;19909;-63
2022/04/26 06:17:53;;;;;;;;;;;9.60;99.90;;;;;;5037503;28;19992;-64
2022/04/26 06:20:22;;;;;;;;;;;9.50;99.90;;;;;;5040575;28;19910;-64
2022/04/26 06:22:48;;;;;;;;;;;9.50;99.90;;;;;;5032093;28;20367;-62
2022/04/26 06:25:14;;;;;;;;;;;9.60;99.90;;;;;;5044019;28;19919;-61
2022/04/26 06:27:39;;;;;;;;;;;9.60;99.90;;;;;;5032526;28;19917;-64
2022/04/26 06:30:05;;;;;;;;;;;9.70;99.90;;;;;;5036931;28;20295;-64
2022/04/26 06:32:31;;;;;;;;;;;9.70;99.90;;;;;;5037906;28;19909;-64
2022/04/26 06:34:56;;;;;;;;;;;9.80;99.90;;;;;;5035187;28;19921;-63
2022/04/26 06:37:23;;;;;;;;;;;9.80;99.90;;;;;;5045462;28;20381;-66
2022/04/26 06:39:50;;;;;;;;;;;9.90;99.90;;;;;;5027432;28;19918;-58
2022/04/26 06:42:16;;;;;;;;;;;9.90;99.90;;;;;;5031113;28;19959;-57
2022/04/26 06:44:41;;;;;;;;;;;10.00;99.90;;;;;;5028602;28;19952;-55
2022/04/26 06:47:07;;;;;;;;;;;10.10;99.90;;;;;;5028659;28;19929;-58
2022/04/26 06:49:32;;;;;;;;;;;10.20;99.90;;;;;;5044627;28;19916;-54
2022/04/26 06:51:58;;;;;;;;;;;10.30;99.90;;;;;;5029987;28;19920;-52
2022/04/26 06:54:23;;;;;;;;;;;10.40;99.90;;;;;;5029917;28;19996;-58
2022/04/26 06:56:49;;;;;;;;;;;10.40;99.90;;;;;;5034866;28;19959;-58
2022/04/26 06:59:15;;;;;;;;;;;10.50;99.90;;;;;;5029673;28;19984;-54
2022/04/26 07:01:40;;;;;;;;;;;10.60;99.90;;;;;;5030335;28;20004;-58
2022/04/26 07:04:07;;;;;;;;;;;10.60;99.90;;;;;;5029259;28;19920;-57
2022/04/26 07:06:32;;;;;;;;;;;10.70;99.90;;;;;;5041427;28;20020;-58
2022/04/26 07:08:58;;;;;;;;;;;10.70;99.90;;;;;;5033836;28;19996;-56
2022/04/26 07:11:23;;;;;;;;;;;10.80;99.90;;;;;;5032822;28;19963;-61
2022/04/26 07:13:52;;;;;;;;;;;10.80;99.90;;;;;;5037253;28;19917;-61
2022/04/26 07:16:18;;;;;;;;;;;10.90;99.90;;;;;;5022459;28;19915;-60
2022/04/26 07:18:43;;;;;;;;;;;11.00;99.90;;;;;;5028901;28;19923;-60
2022/04/26 07:21:09;;;;;;;;;;;11.00;99.90;;;;;;5035971;28;19913;-61
2022/04/26 07:23:34;;;;;;;;;;;10.90;99.90;;;;;;5034862;28;19913;-60
2022/04/26 07:26:00;;;;;;;;;;;10.80;99.90;;;;;;5035800;28;19917;-60
2022/04/26 07:28:25;;;;;;;;;;;10.80;99.90;;;;;;5035738;28;19921;-62
2022/04/26 07:30:51;;;;;;;;;;;10.90;99.90;;;;;;5033573;28;19925;-59
2022/04/26 07:36:22;;;;;;;;;;;10.80;99.90;;;;;;5032604;28;19916;-58
2022/04/26 07:38:49;;;;;;;;;;;10.80;99.90;;;;;;5031887;28;20000;-61
2022/04/26 07:41:14;;;;;;;;;;;10.80;99.90;;;;;;5033497;28;19964;-60
2022/04/26 07:43:41;;;;;;;;;;;10.80;99.90;;;;;;5032007;28;19932;-61
2022/04/26 07:46:07;;;;;;;;;;;10.80;99.90;;;;;;5034472;28;20012;-59
2022/04/26 07:48:33;;;;;;;;;;;10.90;99.90;;;;;;5030369;28;20012;-59
2022/04/26 07:50:59;;;;;;;;;;;10.90;99.90;;;;;;5032848;28;19917;-59
2022/04/26 07:53:26;;;;;;;;;;;10.90;99.90;;;;;;5032924;28;19913;-58
2022/04/26 07:55:52;;;;;;;;;;;10.90;99.90;;;;;;5032177;28;20008;-59
2022/04/26 07:58:17;;;;;;;;;;;10.90;99.80;;;;;;5033054;28;20012;-60
2022/04/26 08:00:43;;;;;;;;;;;10.90;99.90;;;;;;5030886;28;19913;-59
2022/04/26 08:03:08;;;;;;;;;;;10.90;99.90;;;;;;5034002;28;19919;-58
2022/04/26 08:05:34;;;;;;;;;;;10.90;99.90;;;;;;5030277;28;20016;-59
2022/04/26 08:07:59;;;;;;;;;;;11.00;99.90;;;;;;5032743;28;20020;-59
2022/04/26 08:10:25;;;;;;;;;;;11.10;99.90;;;;;;5035159;28;19917;-60
2022/04/26 08:12:50;;;;;;;;;;;11.20;99.90;;;;;;5032661;28;19913;-59
2022/04/26 08:15:18;;;;;;;;;;;11.20;99.90;;;;;;5032346;28;20023;-59
2022/04/26 08:17:44;;;;;;;;;;;11.30;99.90;;;;;;5038085;28;19914;-60
2022/04/26 08:20:10;;;;;;;;;;;11.30;99.60;;;;;;5037807;28;19920;-59
2022/04/26 08:22:37;;;;;;;;;;;11.40;99.50;;;;;;5037666;28;19921;-59
2022/04/26 08:27:47;;;;;;;;;;;11.30;99.30;;;;;;5036066;28;19967;-58
2022/04/26 08:30:12;;;;;;;;;;;11.30;99.10;;;;;;5036418;28;19920;-59
2022/04/26 08:32:42;;;;;;;;;;;11.20;99.30;;;;;;5036275;28;20382;-59
2022/04/26 08:35:10;;;;;;;;;;;11.20;99.40;;;;;;5037436;28;19968;-59
2022/04/26 08:37:36;;;;;;;;;;;11.20;98.90;;;;;;5052440;28;19962;-60
2022/04/26 08:40:04;;;;;;;;;;;11.20;98.90;;;;;;5047689;28;19909;-60
2022/04/26 08:42:34;;;;;;;;;;;11.20;98.70;;;;;;5036567;28;19971;-60
2022/04/26 08:45:00;;;;;;;;;;;11.30;98.80;;;;;;5036830;28;20338;-57
2022/04/26 08:52:53;;;;;;;;;;;11.50;98.50;;;;;;5075257;28;19929;-59
2022/04/26 08:55:20;;;;;;;;;;;11.60;98.50;;;;;;5049945;28;19914;-59
2022/04/26 08:57:45;;;;;;;;;;;11.70;98.80;;;;;;5032957;28;19913;-59
2022/04/26 09:00:11;;;;;;;;;;;11.80;98.20;;;;;;5038065;28;19913;-60
2022/04/26 09:02:37;;;;;;;;;;;11.90;98.30;;;;;;5044816;28;19917;-60
2022/04/26 09:05:09;;;;;;;;;;;11.90;98.10;;;;;;5047833;28;19983;-60
2022/04/26 09:07:37;;;;;;;;;;;12.00;97.40;;;;;;5034053;28;19914;-60
2022/04/26 09:10:10;;;;;;;;;;;11.90;96.90;;;;;;5049495;28;19921;-60
2022/04/26 09:12:54;;;;;;;;;;;12.00;97.20;;;;;;5044968;28;19917;-59
2022/04/26 09:15:20;;;;;;;;;;;12.00;97.10;;;;;;5034955;28;19967;-59
2022/04/26 09:17:45;;;;;;;;;;;12.00;96.70;;;;;;5031685;28;19917;-58
2022/04/26 09:20:11;;;;;;;;;;;12.00;96.60;;;;;;5030021;28;19917;-59
2022/04/26 09:22:39;;;;;;;;;;;12.10;96.40;;;;;;5033584;28;19959;-58
2022/04/26 09:25:07;;;;;;;;;;;12.10;96.40;;;;;;5033804;28;19909;-59
2022/04/26 09:27:40;;;;;;;;;;;12.20;96.20;;;;;;5031570;28;19914;-59
2022/04/26 09:30:12;;;;;;;;;;;12.20;95.70;;;;;;5039734;28;19932;-60
2022/04/26 09:32:44;;;;;;;;;;;12.10;95.50;;;;;;5042430;28;19967;-60
2022/04/26 09:35:20;;;;;;;;;;;12.00;95.40;;;;;;5039770;28;20000;-59
2022/04/26 09:37:45;;;;;;;;;;;12.00;95.60;;;;;;5047095;28;20664;-60
2022/04/26 09:40:11;;;;;;;;;;;12.00;95.60;;;;;;5037832;28;20004;-59
2022/04/26 09:42:37;;;;;;;;;;;12.00;95.70;;;;;;5035182;28;20297;-60
2022/04/26 09:45:10;;;;;;;;;;;12.20;95.60;;;;;;5032282;28;19917;-59
2022/04/26 09:47:41;;;;;;;;;;;12.20;95.30;;;;;;5034518;28;19926;-60
2022/04/26 09:50:09;;;;;;;;;;;12.20;95.60;;;;;;5026406;28;20302;-59
2022/04/26 09:52:35;;;;;;;;;;;12.20;95.20;;;;;;5039975;28;19909;-57
2022/04/26 09:55:01;;;;;;;;;;;12.20;95.00;;;;;;5029092;28;20046;-59
2022/04/26 09:57:28;;;;;;;;;;;12.20;95.60;;;;;;5043351;28;20413;-60
2022/04/26 09:59:54;;;;;;;;;;;12.20;95.30;;;;;;5030706;28;19913;-59
2022/04/26 10:02:20;;;;;;;;;;;12.30;95.60;;;;;;5039806;28;20294;-59
2022/04/26 10:04:47;;;;;;;;;;;12.30;95.40;;;;;;5034792;28;19935;-60
2022/04/26 10:07:14;;;;;;;;;;;12.30;95.30;;;;;;5032957;28;19920;-59
2022/04/26 10:09:40;;;;;;;;;;;12.40;95.30;;;;;;5031368;28;20012;-59
2022/04/26 10:12:05;;;;;;;;;;;12.40;95.00;;;;;;5041693;28;20029;-59
2022/04/26 10:14:32;;;;;;;;;;;12.30;95.10;;;;;;5040038;28;20361;-59
2022/04/26 10:16:57;;;;;;;;;;;12.30;94.60;;;;;;5038799;28;20433;-61
2022/04/26 10:19:39;;;;;;;;;;;12.30;95.10;;;;;;5046941;28;20051;-61
2022/04/26 10:22:04;;;;;;;;;;;12.30;95.10;;;;;;5029050;28;19948;-59
2022/04/26 10:24:30;;;;;;;;;;;12.30;94.80;;;;;;5040124;28;19971;-60
2022/04/26 10:27:15;;;;;;;;;;;12.40;94.90;;;;;;5034311;28;20990;-60
2022/04/26 10:29:44;;;;;;;;;;;12.40;95.00;;;;;;5036735;28;19960;-58
2022/04/26 10:32:11;;;;;;;;;;;12.50;94.60;;;;;;5041739;28;20294;-58
2022/04/26 10:34:36;;;;;;;;;;;12.60;94.90;;;;;;5039687;28;19909;-60
2022/04/26 10:37:08;;;;;;;;;;;12.60;94.70;;;;;;5043243;28;19909;-60
2022/04/26 10:39:37;;;;;;;;;;;12.70;94.90;;;;;;5030143;28;19913;-59
2022/04/26 10:42:23;;;;;;;;;;;12.80;94.80;;;;;;5036572;28;19939;-58
2022/04/26 10:44:48;;;;;;;;;;;12.70;94.60;;;;;;5035254;28;19913;-58
2022/04/26 10:47:20;;;;;;;;;;;12.80;94.10;;;;;;5034049;28;19921;-58
2022/04/26 10:49:47;;;;;;;;;;;12.70;94.40;;;;;;5045913;28;20059;-59
2022/04/26 10:52:19;;;;;;;;;;;12.70;94.30;;;;;;5036039;28;19912;-58
2022/04/26 10:55:01;;;;;;;;;;;12.80;94.20;;;;;;5041733;28;20066;-58
2022/04/26 10:57:28;;;;;;;;;;;12.90;93.80;;;;;;5033707;28;20267;-58
2022/04/26 11:00:03;;;;;;;;;;;13.10;94.20;;;;;;5026857;28;19913;-58
2022/04/26 11:02:29;;;;;;;;;;;13.10;93.60;;;;;;5025693;28;19966;-61
2022/04/26 11:04:56;;;;;;;;;;;13.20;93.20;;;;;;5035038;28;20017;-58
2022/04/26 11:07:25;;;;;;;;;;;13.20;92.50;;;;;;5046289;28;19916;-57
2022/04/26 11:09:53;;;;;;;;;;;13.30;92.80;;;;;;5030941;28;19964;-58
2022/04/26 11:12:19;;;;;;;;;;;13.30;92.90;;;;;;5037573;28;19913;-59
2022/04/26 11:14:45;;;;;;;;;;;13.30;92.90;;;;;;5038100;28;20314;-58
2022/04/26 11:17:11;;;;;;;;;;;13.40;92.40;;;;;;5039091;28;19913;-58
2022/04/26 11:19:37;;;;;;;;;;;13.40;92.80;;;;;;5045243;28;19913;-57
2022/04/26 11:22:07;;;;;;;;;;;13.50;92.60;;;;;;5028113;28;19909;-58
2022/04/26 11:30:02;;;;;;;;;;;13.60;92.10;;;;;;5030901;28;19974;-58
2022/04/26 11:32:32;;;;;;;;;;;13.60;91.40;;;;;;5041768;28;19913;-58
2022/04/26 11:34:57;;;;;;;;;;;13.60;91.20;;;;;;5037490;28;19917;-58
2022/04/26 11:37:23;;;;;;;;;;;13.60;90.60;;;;;;5045789;28;20352;-58
2022/04/26 11:39:49;;;;;;;;;;;13.60;91.00;;;;;;5027512;28;19928;-58
2022/04/26 11:42:16;;;;;;;;;;;13.70;91.30;;;;;;5037463;28;20483;-59
2022/04/26 11:44:59;;;;;;;;;;;13.80;91.40;;;;;;5039112;28;19913;-58
2022/04/26 11:47:40;;;;;;;;;;;13.80;91.00;;;;;;5032614;28;20317;-58
2022/04/26 11:50:12;;;;;;;;;;;13.80;90.80;;;;;;5029556;28;19921;-57
2022/04/26 11:52:38;;;;;;;;;;;13.80;91.40;;;;;;5036660;28;19981;-58
2022/04/26 11:55:04;;;;;;;;;;;13.90;91.00;;;;;;5037929;28;20370;-59
2022/04/26 11:57:31;;;;;;;;;;;13.90;90.60;;;;;;5040835;28;19913;-58
2022/04/26 11:59:57;;;;;;;;;;;13.90;91.30;;;;;;5032273;28;19975;-58
2022/04/26 12:02:22;;;;;;;;;;;13.90;90.80;;;;;;5029711;28;19913;-61
2022/04/26 12:04:48;;;;;;;;;;;14.00;90.90;;;;;;5040813;28;19909;-60
2022/04/26 12:07:14;;;;;;;;;;;14.00;90.00;;;;;;5035703;28;20453;-59
2022/04/26 12:09:42;;;;;;;;;;;14.00;90.60;;;;;;5031756;28;19932;-59
2022/04/26 12:12:10;;;;;;;;;;;14.00;90.70;;;;;;5025633;28;19967;-60
2022/04/26 12:14:38;;;;;;;;;;;14.10;90.80;;;;;;5035480;28;19913;-59
2022/04/26 12:17:14;;;;;;;;;;;14.10;91.00;;;;;;5029339;28;20243;-59
2022/04/26 12:19:41;;;;;;;;;;;14.10;90.00;;;;;;5030057;28;19921;-60
2022/04/26 12:22:07;;;;;;;;;;;14.10;90.10;;;;;;5027515;28;19909;-59
2022/04/26 12:24:52;;;;;;;;;;;14.10;90.30;;;;;;5035370;28;19916;-60
2022/04/26 12:27:32;;;;;;;;;;;14.10;90.60;;;;;;5030719;28;19917;-60
2022/04/26 12:29:58;;;;;;;;;;;14.20;90.00;;;;;;5029529;28;19928;-60
2022/04/26 12:32:26;;;;;;;;;;;14.20;90.50;;;;;;5039953;28;19913;-60
2022/04/26 12:34:53;;;;;;;;;;;14.30;90.50;;;;;;5043163;28;19923;-59
2022/04/26 12:37:21;;;;;;;;;;;14.20;90.10;;;;;;5029145;28;20043;-60
2022/04/26 12:39:48;;;;;;;;;;;14.30;90.10;;;;;;5027545;28;19917;-60
2022/04/26 12:42:26;;;;;;;;;;;14.30;89.80;;;;;;5017416;28;19956;-58
2022/04/26 12:44:53;;;;;;;;;;;14.40;90.40;;;;;;5022165;28;19917;-59
2022/04/26 12:52:49;;;;;;;;;;;14.50;89.60;;;;;;5029684;28;20045;-59
2022/04/26 12:55:25;;;;;;;;;;;14.60;88.80;;;;;;5021074;28;20114;-59
2022/04/26 12:57:52;;;;;;;;;;;14.60;88.80;;;;;;5017607;28;19913;-59
2022/04/26 13:00:21;;;;;;;;;;;14.60;88.40;;;;;;5021097;28;19913;-60
2022/04/26 13:02:47;;;;;;;;;;;14.60;88.20;;;;;;5025086;28;19925;-59
2022/04/26 13:05:12;;;;;;;;;;;14.60;87.70;;;;;;5028203;28;19923;-60
2022/04/26 13:07:38;;;;;;;;;;;14.60;88.90;;;;;;5020720;28;19917;-60
2022/04/26 13:10:04;;;;;;;;;;;14.60;88.20;;;;;;5026605;28;19925;-60
2022/04/26 13:12:31;;;;;;;;;;;14.60;87.60;;;;;;5026307;28;20309;-59
2022/04/26 13:14:58;;;;;;;;;;;14.50;87.00;;;;;;5029171;28;19925;-60
2022/04/26 13:17:24;;;;;;;;;;;14.40;86.60;;;;;;5027394;28;19913;-59
2022/04/26 13:19:49;;;;;;;;;;;14.40;87.00;;;;;;5025586;28;19928;-60
2022/04/26 13:22:16;;;;;;;;;;;14.50;88.10;;;;;;5024696;28;19913;-60
2022/04/26 13:24:42;;;;;;;;;;;14.60;85.60;;;;;;5028122;28;19913;-59
2022/04/26 13:27:07;;;;;;;;;;;14.60;85.60;;;;;;5024595;28;19966;-59
2022/04/26 13:29:33;;;;;;;;;;;14.60;85.20;;;;;;5025853;28;19932;-60
2022/04/26 13:31:59;;;;;;;;;;;14.60;85.40;;;;;;5019448;28;20400;-61
2022/04/26 13:34:24;;;;;;;;;;;14.60;85.50;;;;;;5021405;28;20621;-60
2022/04/26 13:36:51;;;;;;;;;;;14.60;85.80;;;;;;5025179;28;19925;-59
2022/04/26 13:39:16;;;;;;;;;;;14.70;85.30;;;;;;5028941;28;19989;-60
2022/04/26 13:41:42;;;;;;;;;;;14.80;85.60;;;;;;5018289;28;19952;-60
2022/04/26 13:44:07;;;;;;;;;;;14.90;84.50;;;;;;5023098;28;20290;-61
2022/04/26 13:46:33;;;;;;;;;;;14.90;84.20;;;;;;5024702;28;19956;-61
2022/04/26 13:48:58;;;;;;;;;;;14.90;84.50;;;;;;5017442;28;19921;-62
2022/04/26 13:51:29;;;;;;;;;;;14.90;84.40;;;;;;5022916;28;19938;-62
2022/04/26 13:53:54;;;;;;;;;;;15.00;84.70;;;;;;5020811;28;19917;-59
2022/04/26 13:56:20;;;;;;;;;;;15.10;84.00;;;;;;5021770;28;19925;-61
2022/04/26 13:58:45;;;;;;;;;;;15.10;84.10;;;;;;5020530;28;19917;-61
2022/04/26 14:01:11;;;;;;;;;;;15.20;84.20;;;;;;5027718;28;20409;-61
2022/04/26 14:03:37;;;;;;;;;;;15.30;84.60;;;;;;5023001;28;20379;-61
2022/04/26 14:06:02;;;;;;;;;;;15.30;85.90;;;;;;5023022;28;19917;-59
2022/04/26 14:08:30;;;;;;;;;;;15.40;85.00;;;;;;5016659;28;19967;-58
2022/04/26 14:10:56;;;;;;;;;;;15.40;82.10;;;;;;5024740;28;19929;-59
2022/04/26 14:13:22;;;;;;;;;;;15.30;82.00;;;;;;5022867;28;20421;-62
2022/04/26 14:24:03;;;;;;;;;;;15.40;82.50;;;;;;5026867;28;19924;-61
2022/04/26 14:26:29;;;;;;;;;;;15.40;82.00;;;;;;5019509;28;19927;-59
2022/04/26 14:28:55;;;;;;;;;;;15.50;82.40;;;;;;5025157;28;19925;-60
2022/04/26 14:31:20;;;;;;;;;;;15.60;81.80;;;;;;5020767;28;19935;-61
2022/04/26 14:33:46;;;;;;;;;;;15.70;82.40;;;;;;5026417;28;19917;-60
2022/04/26 14:36:11;;;;;;;;;;;15.80;81.20;;;;;;5016337;28;19921;-57
2022/04/26 14:38:37;;;;;;;;;;;15.90;82.60;;;;;;5020959;28;20329;-60
2022/04/26 14:41:02;;;;;;;;;;;15.90;81.30;;;;;;5020816;28;19920;-57
2022/04/26 14:43:28;;;;;;;;;;;15.80;81.80;;;;;;5025310;28;19924;-59
2022/04/26 14:45:55;;;;;;;;;;;15.90;82.10;;;;;;5021301;28;20504;-59
2022/04/26 14:48:23;;;;;;;;;;;15.90;80.70;;;;;;5019806;28;19925;-60
2022/04/26 14:50:48;;;;;;;;;;;15.80;80.30;;;;;;5018157;28;19924;-60
2022/04/26 14:53:14;;;;;;;;;;;15.80;81.10;;;;;;5022670;28;19913;-59
2022/04/26 14:55:40;;;;;;;;;;;15.80;81.10;;;;;;5027595;28;19924;-59
2022/04/26 14:58:09;;;;;;;;;;;15.90;81.60;;;;;;5021267;28;20309;-58
2022/04/26 15:00:35;;;;;;;;;;;15.90;80.90;;;;;;5021733;28;20432;-59
2022/04/26 15:03:01;;;;;;;;;;;15.90;81.20;;;;;;5018541;28;19917;-60
2022/04/26 15:05:27;;;;;;;;;;;16.00;81.30;;;;;;5021901;28;20292;-58
2022/04/26 15:10:37;;;;;;;;;;;16.10;81.40;;;;;;5025772;28;20048;-60
2022/04/26 15:18:31;;;;;;;;;;;16.20;80.30;;;;;;5022617;28;19928;-57
2022/04/26 15:20:57;;;;;;;;;;;16.10;78.80;;;;;;5021290;28;19914;-60
2022/04/26 15:23:22;;;;;;;;;;;16.00;78.60;;;;;;5022699;28;19923;-59
2022/04/26 15:25:50;;;;;;;;;;;16.00;78.70;;;;;;5016039;28;19918;-59
2022/04/26 15:28:17;;;;;;;;;;;15.90;77.60;;;;;;5024294;28;20373;-60
2022/04/26 15:30:42;;;;;;;;;;;15.90;77.80;;;;;;5015554;28;19921;-60
2022/04/26 15:33:08;;;;;;;;;;;15.80;78.30;;;;;;5026032;28;19916;-59
2022/04/26 15:35:33;;;;;;;;;;;15.80;78.20;;;;;;5021415;28;20397;-59
2022/04/26 15:37:59;;;;;;;;;;;15.90;77.00;;;;;;5024133;28;19917;-60
2022/04/26 15:40:25;;;;;;;;;;;15.90;76.90;;;;;;5029659;28;19913;-58
2022/04/26 15:42:50;;;;;;;;;;;15.90;76.90;;;;;;5023050;28;19913;-59
2022/04/26 15:45:16;;;;;;;;;;;16.00;77.50;;;;;;5018557;28;20447;-60
2022/04/26 15:47:41;;;;;;;;;;;16.10;77.70;;;;;;5024971;28;19925;-60
2022/04/26 15:50:07;;;;;;;;;;;16.20;77.40;;;;;;5022154;28;20446;-59
2022/04/26 15:52:34;;;;;;;;;;;16.10;75.20;;;;;;5023016;28;19921;-59
2022/04/26 15:54:59;;;;;;;;;;;16.10;75.90;;;;;;5021982;28;19924;-60
2022/04/26 15:57:25;;;;;;;;;;;16.00;76.40;;;;;;5037080;28;19913;-60
2022/04/26 15:59:50;;;;;;;;;;;16.10;75.90;;;;;;5039298;28;19913;-60
2022/04/26 16:02:16;;;;;;;;;;;16.10;75.60;;;;;;5026939;28;20441;-60
2022/04/26 16:04:42;;;;;;;;;;;16.00;76.10;;;;;;5036721;28;19978;-60
2022/04/26 16:07:08;;;;;;;;;;;16.00;76.00;;;;;;5043738;28;20463;-62
2022/04/26 16:20:30;;;;;;;;;;;16.10;75.90;;;;;;5023190;28;19924;-62
2022/04/26 16:23:00;;;;;;;;;;;16.10;76.40;;;;;;5028664;28;19921;-62
2022/04/26 16:25:26;;;;;;;;;;;16.10;74.80;;;;;;5031645;28;20369;-61
2022/04/26 16:27:52;;;;;;;;;;;16.10;74.60;;;;;;5033862;28;19921;-62
2022/04/26 16:30:17;;;;;;;;;;;16.00;75.10;;;;;;5030799;28;19921;-62
2022/04/26 16:32:43;;;;;;;;;;;16.00;74.80;;;;;;5029321;28;19913;-62
2022/04/26 16:35:10;;;;;;;;;;;15.90;75.30;;;;;;5028990;28;19913;-61
2022/04/26 16:37:36;;;;;;;;;;;15.90;74.40;;;;;;5028913;28;19916;-61
2022/04/26 16:40:02;;;;;;;;;;;15.80;75.10;;;;;;5043217;28;19913;-60
2022/04/26 16:42:29;;;;;;;;;;;15.70;75.10;;;;;;5034197;28;19913;-61
2022/04/26 16:44:55;;;;;;;;;;;15.70;74.90;;;;;;5033547;28;21353;-61
2022/04/26 16:47:20;;;;;;;;;;;15.70;74.90;;;;;;5031050;28;19921;-61
2022/04/26 16:49:46;;;;;;;;;;;15.70;74.80;;;;;;5024297;28;19932;-59
2022/04/26 16:52:12;;;;;;;;;;;15.60;73.90;;;;;;5034492;28;19913;-60
2022/04/26 16:54:38;;;;;;;;;;;15.60;74.60;;;;;;5032654;28;19920;-61
2022/04/26 16:57:03;;;;;;;;;;;15.60;74.60;;;;;;5037824;28;20011;-60
2022/04/26 16:59:30;;;;;;;;;;;15.60;75.00;;;;;;5035214;28;20051;-60
2022/04/26 17:01:55;;;;;;;;;;;15.60;75.50;;;;;;5033034;28;19909;-61
2022/04/26 17:04:21;;;;;;;;;;;15.50;74.50;;;;;;5044244;28;20296;-60
2022/04/26 17:06:47;;;;;;;;;;;15.50;74.30;;;;;;5032219;28;19921;-61
2022/04/26 17:09:12;;;;;;;;;;;15.50;75.10;;;;;;5030949;28;19925;-62
2022/04/26 17:11:42;;;;;;;;;;;15.60;74.80;;;;;;5030579;28;19917;-60
2022/04/26 17:14:08;;;;;;;;;;;16.00;73.60;;;;;;5030626;28;19917;-61
2022/04/26 17:16:33;;;;;;;;;;;16.50;75.30;;;;;;5051538;28;19913;-62
2022/04/26 17:18:59;;;;;;;;;;;17.30;71.90;;;;;;5032731;28;19912;-61
2022/04/26 17:21:24;;;;;;;;;;;17.90;71.80;;;;;;5033602;28;19910;-61
2022/04/26 17:23:50;;;;;;;;;;;17.90;70.40;;;;;;5030655;28;19913;-61
2022/04/26 17:26:19;;;;;;;;;;;17.70;71.30;;;;;;5030355;28;20361;-62
2022/04/26 17:28:45;;;;;;;;;;;17.50;71.10;;;;;;5032422;28;19963;-60
2022/04/26 17:31:11;;;;;;;;;;;17.30;70.90;;;;;;5033108;28;19913;-60
2022/04/26 17:33:39;;;;;;;;;;;17.10;70.90;;;;;;5038141;28;19986;-62
2022/04/26 17:36:05;;;;;;;;;;;17.20;71.30;;;;;;5037073;28;19913;-62
2022/04/26 17:38:31;;;;;;;;;;;17.10;70.60;;;;;;5028879;28;20008;-61
2022/04/26 17:40:56;;;;;;;;;;;17.20;69.70;;;;;;5031808;28;20019;-62
2022/04/26 17:43:22;;;;;;;;;;;17.50;70.10;;;;;;5031250;28;20321;-60
2022/04/26 17:45:47;;;;;;;;;;;17.90;69.80;;;;;;5019605;28;19914;-60
2022/04/26 17:48:13;;;;;;;;;;;18.40;68.70;;;;;;5036191;28;19952;-60
2022/04/26 17:50:39;;;;;;;;;;;18.70;68.50;;;;;;5028556;28;19970;-62
2022/04/26 17:58:33;;;;;;;;;;;18.60;65.40;;;;;;5029993;28;19919;-61
2022/04/26 18:00:59;;;;;;;;;;;18.10;66.20;;;;;;5032953;28;20008;-62
2022/04/26 18:03:26;;;;;;;;;;;17.70;66.60;;;;;;5032879;28;19913;-59
2022/04/26 18:05:51;;;;;;;;;;;17.40;67.00;;;;;;5044810;28;19919;-60
2022/04/26 18:08:17;;;;;;;;;;;17.00;67.50;;;;;;5043076;28;19913;-59
2022/04/26 18:10:42;;;;;;;;;;;16.60;68.20;;;;;;5036808;28;19908;-62
2022/04/26 18:13:08;;;;;;;;;;;16.40;69.00;;;;;;5029662;28;20252;-61
2022/04/26 18:15:34;;;;;;;;;;;16.20;68.70;;;;;;5030538;28;19979;-62
2022/04/26 18:18:00;;;;;;;;;;;16.00;68.60;;;;;;5024677;28;20012;-61
2022/04/26 18:20:25;;;;;;;;;;;15.90;69.20;;;;;;5029268;28;20385;-60
2022/04/26 18:22:51;;;;;;;;;;;15.70;69.20;;;;;;5028381;28;19920;-62
2022/04/26 18:26:10;;;;;;;;;;;15.60;69.30;;;;;;5027953;28;19913;-60
2022/04/26 18:28:01;;;;;;;;;;;15.50;70.60;;;;;;5028567;28;19917;-59
2022/04/26 18:30:27;;;;;;;;;;;15.40;70.20;;;;;;5028572;28;19913;-59
2022/04/26 18:32:52;;;;;;;;;;;15.30;70.60;;;;;;5034719;28;19913;-61
2022/04/26 18:35:18;;;;;;;;;;;15.20;70.90;;;;;;5030093;28;19924;-62
2022/04/26 18:37:44;;;;;;;;;;;15.20;71.40;;;;;;5025243;28;19948;-60
2022/04/26 18:40:10;;;;;;;;;;;15.10;71.60;;;;;;5035664;28;20008;-61
2022/04/26 18:42:36;;;;;;;;;;;15.10;71.70;;;;;;5034080;28;20348;-62
2022/04/26 18:45:01;;;;;;;;;;;15.00;71.80;;;;;;5040044;28;19913;-62
2022/04/26 18:47:27;;;;;;;;;;;14.90;71.80;;;;;;5027943;28;20310;-59
2022/04/26 18:49:52;;;;;;;;;;;14.80;72.10;;;;;;5033898;28;20351;-61
2022/04/26 18:52:18;;;;;;;;;;;14.80;72.40;;;;;;5026794;28;20409;-61